Aeroporto :
LOGIN :

Iscrizione | Disclaimer

   EN    FR    IT 

 










Sommario :    VFR   VFR Marginale   IFR   IFR Intensivo   IFR Molto Intensivo
Visibilità : 
Base nubi : 
>= 8 km
>= 3000ft
5 / 8 km
1000 / 3000 ft
1500m / 5 km
500 / 1000 ft
800 / 1500m
200 / 500 ft
< 800m
< 200 ft
Simboli :   Temporali  Nebbia  Neve Forte  Precipitazioni Forti  Vento > 20 kt
SIGMETs :   Varie  Temporali  Ghiacco  Turbolenza  Onda orograficha  Ceneri Vulcaniche







- Altitudine del aeroporto : 117 ft
- Codice IATA : NWI
- Carte del aeroporto


EGSH - Norwich

ULTIMO METAR :
  • 170320Z AUTO 18009KT 0350 FG OVC001/// 07/07 Q1018

METARs OBSOLETI :
  • 170250Z AUTO 19010KT 0350 FG OVC001/// 07/07 Q1018
  • 170220Z AUTO 19009KT 0450 FG OVC001/// 07/07 Q1019
  • 170150Z AUTO 19009KT 1200 BR BKN001/// 07/07 Q1019
  • 170120Z AUTO 18008KT 3800 BR NCD 07/07 Q1019
  • 170050Z AUTO 19007KT 4500 HZ NCD 08/07 Q1020

TAF AMD TAF EGSH
Valido dal 17 a 03 ore il 17 a 12 ore UTC


170225Z 1703/1712 18007KT 0300 FG BKN001
BECMG 1703/1706 8000 NSW SCT040
BECMG 1706/1709 9999
ATIS : +44 1603 420 640
Nessun NOTAM noto per questo aeroporto.



MetMap, La meteo Aeronautica in un colpo d'occhio ! - Copyright ORBIFLY Dicembre 2007 - Disclaimer

ORBIFLY MET'MAP TEAM :

Programmazione e sviluppo : Alexandra Zaïnal
Concezione e sviluppo : Baudouin d'Aumeries
Co-Programmazione e sviluppo : Marc-Olivier Méhu
Supporto tecnico e logistico : Manuel Goepfert
Aiuto per la traduzione : Arnaldo La Scala

Contatto : metmap@orbifly.com




FONTI E CREDITI :

   NOAA